Main page
METAR-TAF:

METAR-TAF

Airports :

Hutchinson Municipal Airport

Hutchinson, Kansas, United States

latitude: 38-04-05N, longitude: 097-51-38W, elevation: 1542 ft

Current weather observation

The report was made 54 minutes ago, at 13:52 UTC
Wind 8 mph from the South/Southeast
Temperature 77°F
Humidity 79%
Pressure 30.00 in. Hg
Visibility: 10 miles
Clear sky

METAR: KHUT 121352Z 15007KT 10SM CLR 25/21 A3000 RMK AO2 SLP133 T02500206

Time: 09:46 (14:46 UTC)

Forecast

The report was made 3 hours and 26 minutes ago, at 11:20 UTC
Forecast valid from 12 at 12 UTC to 13 at 12 UTC
Wind 7 mph from the Southeast
Visibility: 6 miles
Clear sky
From 12 at 1800 UTC
Wind 13 mph from the South with gusts up to 21 mph
Visibility: 6 miles
Few clouds at a height of 10000 ft

TAF: KHUT 121120Z 1212/1312 14006KT P6SM SKC FM121800 17011G18KT P6SM FEW100

Weather observations and forecasts of more than 4000 airports (METAR and TAF reports).

The available stations are represented by yellow and red dots on the map.

Hover mouse over dot to see the name of the station.

Then click to see weather observations and forecasts.

To change the map : click on the green buttons with a black cross to zoom in, on the green button with a dash to zoom out, or on the green arrows for adjacent maps.


METAR-TAF: